KAMG/AMG METAR and TAF weather

Enter ICAO airport designator
Station Type Date Time Source
KAMG METAR 2019/04/25 21:53 UTC NOAA

KAMG 252153Z AUTO 15006KT 10SM CLR 27/16 A2987 RMK AO2 SLP114 T02670156


Station Type Date Time Source
KAMG Decoded METAR 2019/04/25 21:53 UTC NOAA

ALMA BACON COUNTY AIRPORT, GA, United States (KAMG) 31-32N 82-30W 59M
Apr 25, 2019 - 05:53 PM EDT / 2019.04.25 2153 UTC
Wind: from the SSE (150 degrees) at 7 MPH (6 KT):0
Visibility: 10 mile(s):0
Sky conditions: clear
Temperature: 80.1 F (26.7 C)
Dew Point: 60.1 F (15.6 C)
Relative Humidity: 50%
Pressure (altimeter): 29.87 in. Hg (1011 hPa)
ob: KAMG 252153Z AUTO 15006KT 10SM CLR 27/16 A2987 RMK AO2 SLP114 T02670156
cycle: 22

Station Type Date Time Source
KAMG TAF UTC NOAA

Error!

Example: see airport list